createdAt,value
2019-02-20T00:00:17.797Z,74.40
2019-02-20T00:01:22.605Z,74.50
2019-02-20T00:02:26.599Z,74.40
2019-02-20T00:03:30.683Z,74.20
2019-02-20T00:04:34.622Z,74.20
2019-02-20T00:05:39.198Z,74.20
2019-02-20T00:06:44.875Z,74.30
2019-02-20T00:07:48.851Z,74.40
2019-02-20T00:08:53.763Z,74.50
2019-02-20T00:10:01.231Z,74.80
2019-02-20T00:11:05.454Z,74.50
2019-02-20T00:12:12.403Z,74.60
2019-02-20T00:13:16.499Z,74.50
2019-02-20T00:14:20.591Z,74.60
2019-02-20T00:15:25.459Z,74.50
2019-02-20T00:16:29.584Z,74.60
2019-02-20T00:17:34.769Z,74.50
2019-02-20T00:18:40.174Z,74.50
2019-02-20T00:19:45.613Z,74.00
2019-02-20T00:20:49.561Z,74.20
2019-02-20T00:21:55.612Z,74.00
2019-02-20T00:23:00.547Z,74.20
2019-02-20T00:24:04.431Z,74.20
2019-02-20T00:25:08.456Z,74.30
2019-02-20T00:26:12.399Z,74.30
2019-02-20T00:27:16.398Z,74.30
2019-02-20T00:28:20.582Z,74.30
2019-02-20T00:29:24.448Z,74.50
2019-02-20T00:30:29.664Z,74.70
2019-02-20T00:31:33.674Z,75.00
2019-02-20T00:32:37.627Z,75.10
2019-02-20T00:33:42.914Z,75.20
2019-02-20T00:34:46.832Z,75.50
2019-02-20T00:35:50.832Z,75.50
2019-02-20T00:36:54.806Z,75.70
2019-02-20T00:37:58.842Z,75.60
2019-02-20T00:39:03.900Z,75.80
2019-02-20T00:40:11.180Z,75.90
2019-02-20T00:41:16.178Z,76.00
2019-02-20T00:42:20.165Z,76.00
2019-02-20T00:43:25.212Z,76.10
2019-02-20T00:44:33.434Z,76.10
2019-02-20T00:45:43.035Z,76.10
2019-02-20T00:46:49.745Z,76.30
2019-02-20T00:47:58.078Z,76.30
2019-02-20T00:49:05.963Z,76.20
2019-02-20T00:50:09.910Z,76.20
2019-02-20T00:51:24.484Z,76.00
2019-02-20T00:52:30.251Z,76.10
2019-02-20T00:53:35.970Z,76.00
2019-02-20T00:54:41.444Z,75.70
2019-02-20T00:55:45.402Z,75.80
2019-02-20T00:56:49.401Z,75.70
2019-02-20T00:57:53.323Z,76.00
2019-02-20T00:58:57.439Z,75.70
2019-02-20T01:00:03.653Z,75.70
2019-02-20T01:01:07.617Z,75.80
2019-02-20T01:02:11.763Z,75.50
2019-02-20T01:03:15.673Z,75.70
2019-02-20T01:04:19.863Z,75.80
2019-02-20T01:05:24.383Z,75.70
2019-02-20T01:06:29.769Z,75.80
2019-02-20T01:07:34.813Z,75.80
2019-02-20T01:08:40.478Z,75.60
2019-02-20T01:09:44.475Z,75.40
2019-02-20T01:10:48.470Z,75.50
2019-02-20T01:11:52.430Z,75.50
2019-02-20T01:12:56.325Z,74.50
2019-02-20T01:14:00.231Z,75.20
2019-02-20T01:15:07.198Z,75.30
2019-02-20T01:16:11.113Z,75.30
2019-02-20T01:17:16.799Z,75.50
2019-02-20T01:18:20.846Z,75.60
2019-02-20T01:19:25.078Z,75.80
2019-02-20T01:20:30.009Z,75.70
2019-02-20T01:21:34.064Z,75.60
2019-02-20T01:22:38.223Z,75.90
2019-02-20T01:23:42.363Z,75.90
2019-02-20T01:24:47.505Z,75.70
2019-02-20T01:25:51.612Z,75.70
2019-02-20T01:26:55.610Z,76.00
2019-02-20T01:27:59.658Z,76.20
2019-02-20T01:29:03.850Z,76.10
2019-02-20T01:30:12.219Z,76.00
2019-02-20T01:31:16.158Z,76.00
2019-02-20T01:32:20.062Z,75.90
2019-02-20T01:33:24.354Z,76.80
2019-02-20T01:34:28.232Z,76.00
2019-02-20T01:35:32.126Z,75.90
2019-02-20T01:36:36.115Z,75.90
2019-02-20T01:37:41.378Z,75.80
2019-02-20T01:38:45.287Z,75.70
2019-02-20T01:39:49.616Z,75.90
2019-02-20T01:40:53.516Z,75.90
2019-02-20T01:41:58.120Z,75.80
2019-02-20T01:43:02.373Z,75.90
2019-02-20T01:44:06.422Z,76.20
2019-02-20T01:45:12.959Z,76.20
2019-02-20T01:46:18.956Z,76.10
2019-02-20T01:47:22.711Z,76.00
2019-02-20T01:48:26.622Z,76.10
2019-02-20T01:49:30.619Z,75.80
2019-02-20T01:50:34.624Z,75.90
2019-02-20T01:51:38.652Z,75.60
2019-02-20T01:52:42.617Z,75.60
2019-02-20T01:53:49.382Z,75.80
2019-02-20T01:54:53.792Z,75.90
2019-02-20T01:55:57.896Z,76.80
2019-02-20T01:57:02.769Z,76.20
2019-02-20T01:58:06.923Z,76.90
2019-02-20T01:59:10.921Z,76.30
2019-02-20T02:00:15.004Z,75.90
2019-02-20T02:01:18.975Z,76.20
2019-02-20T02:02:23.021Z,76.50
2019-02-20T02:03:27.062Z,76.70
2019-02-20T02:04:31.126Z,76.90
2019-02-20T02:05:35.160Z,77.00
2019-02-20T02:06:39.085Z,77.40
2019-02-20T02:07:43.135Z,77.50
2019-02-20T02:08:47.126Z,77.50
2019-02-20T02:09:51.133Z,77.50
2019-02-20T02:10:55.128Z,77.60
2019-02-20T02:11:59.746Z,77.70
2019-02-20T02:13:04.238Z,77.80
2019-02-20T02:14:09.824Z,77.90
2019-02-20T02:15:20.090Z,77.90
2019-02-20T02:16:19.310Z,78.10
2019-02-20T02:17:23.206Z,78.10
2019-02-20T02:18:27.124Z,78.10
2019-02-20T02:19:32.719Z,78.20
2019-02-20T02:20:36.799Z,78.10
2019-02-20T02:21:40.869Z,78.30
2019-02-20T02:22:44.926Z,78.40
2019-02-20T02:23:48.952Z,78.40
2019-02-20T02:24:53.103Z,78.40
2019-02-20T02:25:57.162Z,78.40
2019-02-20T02:27:01.102Z,78.40
2019-02-20T02:28:05.073Z,78.40
2019-02-20T02:29:12.484Z,78.50
2019-02-20T02:30:16.487Z,78.40
2019-02-20T02:31:20.592Z,78.50
2019-02-20T02:32:24.612Z,78.50
2019-02-20T02:33:31.612Z,78.30
2019-02-20T02:34:36.418Z,78.10
2019-02-20T02:35:40.493Z,78.00
2019-02-20T02:36:45.720Z,78.00
2019-02-20T02:37:49.623Z,78.10
2019-02-20T02:38:54.441Z,78.10
2019-02-20T02:40:01.454Z,78.20
2019-02-20T02:41:05.424Z,78.20
2019-02-20T02:42:11.120Z,78.40
2019-02-20T02:43:15.153Z,78.30
2019-02-20T02:44:20.121Z,78.40
2019-02-20T02:45:24.147Z,78.40
2019-02-20T02:46:29.601Z,78.40
2019-02-20T02:47:36.380Z,78.60
2019-02-20T02:48:40.436Z,78.60
2019-02-20T02:49:46.608Z,78.70
2019-02-20T02:50:50.515Z,78.80
2019-02-20T02:51:57.831Z,78.50
2019-02-20T02:53:03.050Z,78.50
2019-02-20T02:54:08.317Z,78.30
2019-02-20T02:55:22.302Z,78.40
2019-02-20T02:56:20.580Z,78.40
2019-02-20T02:57:24.579Z,78.30
2019-02-20T02:58:28.596Z,78.30
2019-02-20T02:59:32.771Z,78.30
2019-02-20T03:00:36.676Z,78.30
2019-02-20T03:01:41.013Z,78.30
2019-02-20T03:02:45.051Z,78.40
2019-02-20T03:03:52.606Z,78.30
2019-02-20T03:04:56.528Z,78.10
2019-02-20T03:06:02.113Z,78.10
2019-02-20T03:07:06.111Z,78.10
2019-02-20T03:08:10.119Z,78.00
2019-02-20T03:09:14.196Z,77.60
2019-02-20T03:10:20.728Z,78.00
2019-02-20T03:11:24.750Z,78.80
2019-02-20T03:12:28.814Z,78.10
2019-02-20T03:13:34.959Z,78.00
2019-02-20T03:14:38.974Z,78.00
2019-02-20T03:15:44.990Z,77.90
2019-02-20T03:16:48.984Z,77.90
2019-02-20T03:17:52.991Z,77.90
2019-02-20T03:18:56.884Z,77.70
2019-02-20T03:20:00.905Z,77.80
2019-02-20T03:21:05.990Z,78.00
2019-02-20T03:22:10.069Z,77.90
2019-02-20T03:23:15.183Z,77.70
2019-02-20T03:24:19.686Z,77.70
2019-02-20T03:25:24.886Z,77.90
2019-02-20T03:26:29.399Z,77.90
2019-02-20T03:27:33.446Z,77.70
2019-02-20T03:28:40.230Z,77.70
2019-02-20T03:29:44.275Z,77.90
2019-02-20T03:30:48.283Z,78.00
2019-02-20T03:31:52.228Z,77.70
2019-02-20T03:32:56.353Z,77.70
2019-02-20T03:34:00.371Z,77.60
2019-02-20T03:35:05.727Z,77.60
2019-02-20T03:36:13.471Z,77.70
2019-02-20T03:37:17.371Z,77.90
2019-02-20T03:38:29.917Z,77.90
2019-02-20T03:39:30.040Z,77.90
2019-02-20T03:40:35.472Z,77.90
2019-02-20T03:41:40.132Z,77.60
2019-02-20T03:42:44.340Z,77.90
2019-02-20T03:43:50.278Z,77.90
2019-02-20T03:44:55.338Z,77.90
2019-02-20T03:45:59.289Z,77.90
2019-02-20T03:47:03.279Z,78.00
2019-02-20T03:48:07.246Z,78.00
2019-02-20T03:49:12.288Z,77.90
2019-02-20T03:50:18.514Z,78.00
2019-02-20T03:51:22.479Z,78.10
2019-02-20T03:52:26.443Z,78.10
2019-02-20T03:53:30.412Z,78.10
2019-02-20T03:54:34.492Z,78.00
2019-02-20T03:55:38.796Z,78.30
2019-02-20T03:56:43.966Z,78.40
2019-02-20T03:57:47.857Z,78.30
2019-02-20T03:58:52.420Z,78.40
2019-02-20T03:59:56.366Z,78.50
2019-02-20T04:01:00.831Z,78.60
2019-02-20T04:02:04.922Z,78.70
2019-02-20T04:03:08.937Z,78.80
2019-02-20T04:04:12.888Z,78.80
2019-02-20T04:05:18.079Z,78.70
2019-02-20T04:06:22.031Z,78.60
2019-02-20T04:07:26.104Z,78.30
2019-02-20T04:08:30.199Z,78.50
2019-02-20T04:09:34.239Z,78.30
2019-02-20T04:10:38.146Z,78.50
2019-02-20T04:11:42.369Z,78.60
2019-02-20T04:12:46.285Z,78.40
2019-02-20T04:13:50.207Z,78.20
2019-02-20T04:14:54.339Z,78.40
2019-02-20T04:15:58.242Z,78.50
2019-02-20T04:17:02.195Z,78.60
2019-02-20T04:18:06.080Z,78.60
2019-02-20T04:19:11.419Z,78.70
2019-02-20T04:20:16.838Z,78.50
2019-02-20T04:21:20.852Z,78.80
2019-02-20T04:22:24.814Z,78.70
2019-02-20T04:23:28.714Z,78.40
2019-02-20T04:24:32.726Z,78.40
2019-02-20T04:25:36.714Z,78.20
2019-02-20T04:26:40.860Z,78.30
2019-02-20T04:27:45.111Z,78.20
2019-02-20T04:28:49.076Z,78.20
2019-02-20T04:29:53.662Z,78.00
2019-02-20T04:30:59.135Z,78.10
2019-02-20T04:32:03.061Z,77.90
2019-02-20T04:33:07.097Z,77.70
2019-02-20T04:34:11.141Z,77.80
2019-02-20T04:35:18.097Z,77.90
2019-02-20T04:36:22.095Z,77.70
2019-02-20T04:37:26.119Z,78.00
2019-02-20T04:38:31.761Z,77.90
2019-02-20T04:39:36.827Z,77.90
2019-02-20T04:40:44.480Z,77.60
2019-02-20T04:41:50.078Z,77.40
2019-02-20T04:42:59.433Z,77.70
2019-02-20T04:44:04.517Z,77.60
2019-02-20T04:45:10.346Z,77.50
2019-02-20T04:46:14.242Z,77.50
2019-02-20T04:47:18.957Z,77.30
2019-02-20T04:48:22.962Z,77.30
2019-02-20T04:49:27.065Z,77.30
2019-02-20T04:50:30.959Z,77.20
2019-02-20T04:51:34.853Z,77.30
2019-02-20T04:52:38.837Z,77.60
2019-02-20T04:53:43.927Z,77.30
2019-02-20T04:54:49.676Z,77.20
2019-02-20T04:55:53.614Z,77.30
2019-02-20T04:56:57.493Z,77.30
2019-02-20T04:58:10.940Z,77.30
2019-02-20T04:59:14.954Z,77.30
2019-02-20T05:00:18.954Z,77.30
2019-02-20T05:01:22.952Z,77.40
2019-02-20T05:02:26.837Z,77.50
2019-02-20T05:03:30.815Z,77.50
2019-02-20T05:04:34.775Z,77.70
2019-02-20T05:05:38.883Z,77.80
2019-02-20T05:06:42.867Z,77.90
2019-02-20T05:07:47.089Z,77.90
2019-02-20T05:08:50.969Z,78.00
2019-02-20T05:09:54.954Z,77.70
2019-02-20T05:10:58.971Z,77.90
2019-02-20T05:12:03.023Z,77.90
2019-02-20T05:13:07.022Z,77.90
2019-02-20T05:14:11.054Z,77.80
2019-02-20T05:15:15.024Z,78.00
2019-02-20T05:16:19.022Z,77.80
2019-02-20T05:17:23.609Z,78.10
2019-02-20T05:18:27.672Z,78.40
2019-02-20T05:19:31.876Z,78.20
2019-02-20T05:20:35.858Z,78.70
2019-02-20T05:21:41.518Z,78.30
2019-02-20T05:22:47.495Z,78.20
2019-02-20T05:23:52.487Z,78.30
2019-02-20T05:24:56.443Z,77.80
2019-02-20T05:26:00.466Z,77.90
2019-02-20T05:27:04.466Z,77.80
2019-02-20T05:28:08.455Z,77.90
2019-02-20T05:29:13.392Z,77.90
2019-02-20T05:30:17.409Z,77.70
2019-02-20T05:31:21.327Z,77.80
2019-02-20T05:32:25.430Z,77.90
2019-02-20T05:33:29.343Z,77.90
2019-02-20T05:34:33.301Z,78.10
2019-02-20T05:35:38.867Z,78.10
2019-02-20T05:36:43.036Z,78.40
2019-02-20T05:37:48.814Z,78.60
2019-02-20T05:38:52.806Z,78.40
2019-02-20T05:39:56.975Z,78.20
2019-02-20T05:41:00.915Z,78.40
2019-02-20T05:42:05.871Z,78.60
2019-02-20T05:43:09.732Z,78.60
2019-02-20T05:44:13.639Z,78.80
2019-02-20T05:45:17.727Z,78.70
2019-02-20T05:46:22.188Z,78.60
2019-02-20T05:47:26.278Z,78.60
2019-02-20T05:48:30.277Z,78.80
2019-02-20T05:49:39.147Z,78.60
2019-02-20T05:50:43.267Z,78.40
2019-02-20T05:51:47.513Z,78.30
2019-02-20T05:52:51.546Z,78.20
2019-02-20T05:53:55.589Z,78.20
2019-02-20T05:54:59.473Z,78.00
2019-02-20T05:56:04.342Z,77.80
2019-02-20T05:57:09.517Z,78.10
2019-02-20T05:58:13.530Z,78.10
2019-02-20T05:59:17.605Z,78.10
2019-02-20T06:00:23.373Z,78.40
2019-02-20T06:01:28.646Z,78.50
2019-02-20T06:02:32.834Z,78.40
2019-02-20T06:03:36.748Z,78.10
2019-02-20T06:04:41.383Z,78.00
2019-02-20T06:05:46.657Z,78.00
2019-02-20T06:06:51.051Z,77.90
2019-02-20T06:07:54.988Z,77.70
2019-02-20T06:08:58.914Z,77.40
2019-02-20T06:10:02.917Z,77.40
2019-02-20T06:11:14.980Z,77.70
2019-02-20T06:12:15.995Z,77.50
2019-02-20T06:13:19.958Z,77.40
2019-02-20T06:14:23.906Z,77.20
2019-02-20T06:15:28.054Z,77.20
2019-02-20T06:16:32.163Z,76.80
2019-02-20T06:17:36.799Z,76.60
2019-02-20T06:18:42.339Z,76.50
2019-02-20T06:19:46.287Z,77.00
2019-02-20T06:20:50.426Z,76.60
2019-02-20T06:21:54.451Z,76.60
2019-02-20T06:22:59.603Z,76.80
2019-02-20T06:24:04.222Z,77.00
2019-02-20T06:25:09.886Z,77.10
2019-02-20T06:26:14.350Z,77.00
2019-02-20T06:27:20.203Z,77.20
2019-02-20T06:28:24.295Z,77.10
2019-02-20T06:29:28.354Z,77.00
2019-02-20T06:30:33.944Z,77.10
2019-02-20T06:31:38.140Z,77.30
2019-02-20T06:32:49.782Z,77.40
2019-02-20T06:33:55.543Z,77.30
2019-02-20T06:35:04.125Z,77.00
2019-02-20T06:36:08.229Z,77.20
2019-02-20T06:37:12.330Z,76.80
2019-02-20T06:38:17.365Z,76.90
2019-02-20T06:39:21.409Z,76.60
2019-02-20T06:40:25.987Z,76.40
2019-02-20T06:41:38.539Z,76.50
2019-02-20T06:42:43.811Z,76.60
2019-02-20T06:43:56.172Z,76.80
2019-02-20T06:45:04.811Z,76.50
2019-02-20T06:46:11.006Z,76.80
2019-02-20T06:47:20.347Z,76.60
2019-02-20T06:48:25.821Z,76.70
2019-02-20T06:49:34.470Z,76.50
2019-02-20T06:50:40.195Z,76.50
2019-02-20T06:51:45.457Z,76.30
2019-02-20T06:52:55.582Z,76.30
2019-02-20T06:54:01.497Z,76.70
2019-02-20T06:55:43.029Z,77.50
2019-02-20T06:57:43.028Z,76.60
2019-02-20T06:58:49.671Z,77.00
2019-02-20T06:59:59.507Z,77.20
2019-02-20T07:02:14.319Z,77.00
2019-02-20T07:03:27.887Z,77.20
2019-02-20T07:04:25.553Z,77.10
2019-02-20T07:05:36.819Z,76.90
2019-02-20T07:06:56.971Z,77.00
2019-02-20T07:08:37.515Z,76.90
2019-02-20T07:09:58.782Z,76.70
2019-02-20T07:11:16.029Z,76.90
2019-02-20T07:12:30.589Z,76.90
2019-02-20T07:14:00.368Z,76.70
2019-02-20T07:15:31.695Z,76.90
2019-02-20T07:17:13.622Z,76.80
2019-02-20T07:18:23.657Z,76.80
2019-02-20T07:19:42.885Z,76.60
2019-02-20T07:21:13.805Z,76.80
2019-02-20T07:22:35.709Z,76.50
2019-02-20T07:23:49.010Z,76.50
2019-02-20T07:25:02.804Z,76.60
2019-02-20T07:26:29.200Z,76.40
2019-02-20T07:27:59.208Z,76.30
2019-02-20T07:29:26.778Z,76.60
2019-02-20T07:30:38.694Z,75.90
2019-02-20T07:31:45.557Z,76.00
2019-02-20T07:32:53.287Z,76.30
2019-02-20T07:34:01.689Z,76.50
2019-02-20T07:35:18.247Z,76.00
2019-02-20T07:36:28.031Z,76.10
2019-02-20T07:37:36.807Z,76.10
2019-02-20T07:38:58.877Z,75.90
2019-02-20T07:40:16.175Z,75.90
2019-02-20T07:41:50.625Z,75.80
2019-02-20T07:44:03.899Z,75.80
2019-02-20T07:44:16.923Z,75.90
2019-02-20T07:46:48.576Z,76.10
2019-02-20T07:47:53.055Z,76.00
2019-02-20T07:50:41.523Z,75.70
2019-02-20T07:51:56.395Z,75.50
2019-02-20T07:53:15.760Z,75.20
2019-02-20T07:54:32.518Z,75.30
2019-02-20T07:58:54.401Z,74.80
2019-02-20T08:00:14.072Z,74.40
2019-02-20T08:01:04.127Z,74.80
2019-02-20T08:02:14.360Z,74.30
2019-02-20T08:03:27.041Z,74.20
2019-02-20T08:04:33.032Z,74.00
2019-02-20T08:05:40.301Z,73.80
2019-02-20T08:06:48.099Z,73.80
2019-02-20T08:07:57.700Z,74.30
2019-02-20T08:09:04.121Z,74.40
2019-02-20T08:10:11.238Z,74.50
2019-02-20T08:11:14.783Z,74.50
2019-02-20T08:12:23.209Z,74.50
2019-02-20T08:13:39.064Z,74.50
2019-02-20T08:14:42.687Z,74.70
2019-02-20T08:15:52.934Z,74.10
2019-02-20T08:17:06.142Z,73.80
2019-02-20T08:18:14.142Z,73.60
2019-02-20T08:19:21.826Z,73.80
2019-02-20T08:20:27.568Z,73.60
2019-02-20T08:21:47.964Z,73.60
2019-02-20T08:24:24.791Z,73.80
2019-02-20T08:25:30.437Z,73.90
2019-02-20T08:26:35.866Z,74.00
2019-02-20T08:27:56.017Z,73.60
2019-02-20T08:28:59.407Z,73.60
2019-02-20T08:30:13.162Z,73.10
2019-02-20T08:31:23.615Z,72.70
2019-02-20T08:32:32.635Z,72.50
2019-02-20T08:33:39.707Z,72.20
2019-02-20T08:34:50.499Z,72.30
2019-02-20T08:36:01.121Z,71.70
2019-02-20T08:37:07.938Z,71.20
2019-02-20T08:38:18.099Z,71.30
2019-02-20T08:39:27.508Z,71.10
2019-02-20T08:40:33.406Z,70.90
2019-02-20T08:41:39.349Z,70.80
2019-02-20T08:42:52.561Z,71.10
2019-02-20T08:43:57.446Z,71.20
2019-02-20T08:45:08.889Z,70.50
2019-02-20T08:52:35.987Z,70.50
2019-02-20T08:53:45.806Z,70.50
2019-02-20T08:56:50.340Z,70.20
2019-02-20T08:57:49.913Z,70.00
2019-02-20T08:59:04.184Z,70.30
2019-02-20T09:00:24.254Z,70.10
2019-02-20T09:01:40.628Z,70.00
2019-02-20T09:02:47.312Z,70.10
2019-02-20T09:05:19.544Z,69.80
2019-02-20T09:06:07.017Z,69.60
2019-02-20T09:07:43.532Z,69.40
2019-02-20T09:08:55.106Z,69.50
2019-02-20T09:10:01.237Z,69.90
2019-02-20T09:11:21.790Z,69.20
2019-02-20T09:13:08.550Z,68.90
2019-02-20T09:13:46.889Z,68.50
2019-02-20T09:15:06.310Z,68.20
2019-02-20T09:16:13.070Z,68.00
2019-02-20T09:17:22.152Z,67.80
2019-02-20T09:18:49.550Z,67.30
2019-02-20T09:19:55.275Z,66.80
2019-02-20T09:20:59.938Z,67.10
2019-02-20T09:22:07.827Z,66.60
2019-02-20T09:23:14.892Z,66.50
2019-02-20T09:24:19.131Z,66.80
2019-02-20T09:25:23.650Z,66.50
2019-02-20T09:26:30.277Z,65.90
2019-02-20T09:27:52.942Z,66.20
2019-02-20T09:29:01.888Z,66.30
2019-02-20T09:30:17.507Z,66.10
2019-02-20T09:31:22.228Z,66.00
2019-02-20T09:32:28.119Z,66.40
2019-02-20T09:33:32.213Z,66.30
2019-02-20T09:34:36.175Z,66.40
2019-02-20T09:35:40.392Z,66.30
2019-02-20T09:36:47.826Z,66.10
2019-02-20T09:38:00.800Z,65.80
2019-02-20T09:39:22.364Z,65.30
2019-02-20T09:40:28.124Z,65.00
2019-02-20T09:41:32.199Z,65.20
2019-02-20T09:42:44.413Z,65.30
2019-02-20T09:43:53.593Z,65.60
2019-02-20T09:44:57.511Z,66.10
2019-02-20T09:46:02.183Z,66.40
2019-02-20T09:47:08.041Z,66.80
2019-02-20T09:48:12.089Z,66.80
2019-02-20T09:49:17.662Z,66.90
2019-02-20T09:50:22.222Z,67.10
2019-02-20T09:51:26.161Z,66.40
2019-02-20T09:52:30.226Z,66.70
2019-02-20T09:53:34.234Z,66.70
2019-02-20T09:54:39.504Z,66.50
2019-02-20T09:55:51.646Z,66.50
2019-02-20T09:56:51.057Z,66.70
2019-02-20T09:57:58.323Z,66.80
2019-02-20T09:59:03.981Z,67.10
2019-02-20T10:00:11.420Z,67.50
2019-02-20T10:01:16.880Z,67.20
2019-02-20T10:02:22.345Z,67.10
2019-02-20T10:03:27.691Z,67.10
2019-02-20T10:04:32.499Z,67.10
2019-02-20T10:05:36.721Z,67.90
2019-02-20T10:06:40.841Z,69.00
2019-02-20T10:07:48.134Z,69.20
2019-02-20T10:08:53.741Z,69.90
2019-02-20T10:09:57.807Z,70.30
2019-02-20T10:11:04.351Z,71.00
2019-02-20T10:12:11.421Z,71.30
2019-02-20T10:13:15.469Z,70.50
2019-02-20T10:14:19.491Z,73.00
2019-02-20T10:15:25.233Z,73.90
2019-02-20T10:16:30.933Z,79.10
2019-02-20T10:17:35.514Z,83.70
2019-02-20T10:18:42.032Z,88.90
2019-02-20T10:19:48.883Z,87.40
2019-02-20T10:20:52.179Z,90.10
2019-02-20T10:21:56.240Z,91.60
2019-02-20T10:23:00.200Z,92.70
2019-02-20T10:24:05.632Z,93.00
2019-02-20T10:25:11.310Z,93.00
2019-02-20T10:26:16.545Z,92.50
2019-02-20T10:27:20.462Z,94.20
2019-02-20T10:28:24.367Z,94.40
2019-02-20T10:29:28.361Z,94.00
2019-02-20T10:30:32.405Z,93.40
2019-02-20T10:31:38.922Z,94.50
2019-02-20T10:32:43.145Z,94.60
2019-02-20T10:33:47.146Z,93.90
2019-02-20T10:34:52.473Z,93.60
2019-02-20T10:35:56.473Z,93.80
2019-02-20T10:37:00.430Z,94.40
2019-02-20T10:38:04.445Z,94.50
2019-02-20T10:39:08.599Z,95.90
2019-02-20T10:40:12.601Z,94.60
2019-02-20T10:41:16.660Z,93.90
2019-02-20T10:42:20.652Z,93.70
2019-02-20T10:43:24.552Z,94.20
2019-02-20T10:44:28.602Z,94.50
2019-02-20T10:45:32.531Z,93.90
2019-02-20T10:46:36.457Z,94.40
2019-02-20T10:47:40.504Z,93.70
2019-02-20T10:48:44.401Z,92.10
2019-02-20T10:49:48.458Z,92.30
2019-02-20T10:50:52.486Z,92.80
2019-02-20T10:51:56.382Z,93.30
2019-02-20T10:53:00.433Z,91.10
2019-02-20T10:54:05.992Z,89.50
2019-02-20T10:55:13.147Z,91.20
2019-02-20T10:56:19.730Z,92.10
2019-02-20T10:57:24.269Z,91.40
2019-02-20T10:58:31.395Z,90.20
2019-02-20T10:59:33.770Z,91.00
2019-02-20T11:00:37.832Z,88.60
2019-02-20T11:01:43.834Z,90.90
2019-02-20T11:02:48.399Z,88.10
2019-02-20T11:03:53.955Z,89.10
2019-02-20T11:04:57.972Z,88.90
2019-02-20T11:06:01.924Z,88.90
2019-02-20T11:07:05.880Z,90.00
2019-02-20T11:08:15.297Z,89.10
2019-02-20T11:09:19.318Z,87.50
2019-02-20T11:10:24.183Z,89.40
2019-02-20T11:11:28.524Z,86.80
2019-02-20T11:12:32.628Z,84.70
2019-02-20T11:13:38.182Z,85.60
2019-02-20T11:14:43.828Z,86.30
2019-02-20T11:15:47.980Z,85.60
2019-02-20T11:16:52.034Z,87.00
2019-02-20T11:17:55.994Z,86.10
2019-02-20T11:19:01.704Z,84.00
2019-02-20T11:20:10.173Z,84.70
2019-02-20T11:21:14.460Z,85.80
2019-02-20T11:22:20.535Z,84.30
2019-02-20T11:23:26.040Z,84.90
2019-02-20T11:24:30.973Z,84.80
2019-02-20T11:25:35.379Z,80.80
2019-02-20T11:26:46.243Z,80.70
2019-02-20T11:27:45.260Z,79.00
2019-02-20T11:28:49.221Z,78.10
2019-02-20T11:29:53.319Z,76.60
2019-02-20T11:30:59.074Z,78.30
2019-02-20T11:32:03.069Z,76.90
2019-02-20T11:33:06.959Z,76.90
2019-02-20T11:34:10.970Z,78.90
2019-02-20T11:35:17.974Z,78.70
2019-02-20T11:36:23.192Z,78.70
2019-02-20T11:37:27.159Z,76.00
2019-02-20T11:38:31.158Z,75.60
2019-02-20T11:39:41.724Z,73.60
2019-02-20T11:40:45.820Z,74.70
2019-02-20T11:41:49.792Z,73.50
2019-02-20T11:42:54.309Z,73.30
2019-02-20T11:43:59.178Z,73.20
2019-02-20T11:45:03.364Z,75.40
2019-02-20T11:46:14.439Z,72.90
2019-02-20T11:47:18.587Z,70.90
2019-02-20T11:48:25.846Z,72.60
2019-02-20T11:49:29.765Z,70.90
2019-02-20T11:50:35.070Z,71.70
2019-02-20T11:51:40.025Z,70.60
2019-02-20T11:52:45.206Z,69.90
2019-02-20T11:53:49.182Z,71.50
2019-02-20T11:54:53.151Z,72.50
2019-02-20T11:55:57.169Z,72.40
2019-02-20T11:57:01.121Z,70.60
2019-02-20T11:58:06.659Z,71.80
2019-02-20T11:59:10.928Z,71.10
2019-02-20T12:00:16.497Z,70.60
2019-02-20T12:01:22.501Z,70.60
2019-02-20T12:02:37.223Z,73.40
2019-02-20T12:03:38.061Z,71.20
2019-02-20T12:04:45.171Z,72.70
2019-02-20T12:07:22.696Z,70.80
2019-02-20T12:08:31.178Z,69.80
2019-02-20T12:09:47.862Z,69.20
2019-02-20T12:10:50.125Z,69.90
2019-02-20T12:12:06.746Z,69.30
2019-02-20T12:13:14.461Z,70.60
2019-02-20T12:14:36.253Z,68.60
2019-02-20T12:18:35.663Z,66.30
2019-02-20T12:19:49.718Z,66.80
2019-02-20T12:20:57.369Z,66.40
2019-02-20T12:22:16.461Z,67.80
2019-02-20T12:25:48.487Z,67.40
2019-02-20T12:26:35.203Z,66.40
2019-02-20T12:28:02.616Z,65.80
2019-02-20T12:31:52.124Z,65.40
2019-02-20T12:32:19.844Z,68.40
2019-02-20T12:33:18.952Z,66.00
2019-02-20T12:34:46.536Z,65.40
2019-02-20T12:35:49.066Z,65.00
2019-02-20T12:36:53.002Z,78.10
2019-02-20T12:37:56.846Z,99.50
2019-02-20T12:39:00.736Z,93.30
2019-02-20T12:40:07.010Z,86.80
2019-02-20T12:41:11.006Z,81.10
2019-02-20T12:42:18.094Z,95.90
2019-02-20T12:43:22.022Z,88.40
2019-02-20T12:44:27.124Z,62.30
2019-02-20T12:45:31.246Z,48.20
2019-02-20T12:46:35.362Z,47.60
2019-02-20T12:47:45.590Z,43.70
2019-02-20T12:48:49.519Z,43.40
2019-02-20T12:49:53.522Z,45.00
2019-02-20T12:50:57.529Z,46.90
2019-02-20T12:52:01.452Z,47.80
2019-02-20T12:53:05.651Z,48.90
2019-02-20T12:54:09.593Z,49.20
2019-02-20T12:55:13.552Z,49.20
2019-02-20T12:56:17.556Z,50.20
2019-02-20T12:57:21.452Z,50.50
2019-02-20T12:58:27.221Z,52.10
2019-02-20T12:59:31.213Z,52.40
2019-02-20T13:00:35.156Z,54.10
2019-02-20T13:01:39.061Z,54.80
2019-02-20T13:02:45.244Z,54.90
2019-02-20T13:03:49.210Z,55.00
2019-02-20T13:04:53.185Z,55.80
2019-02-20T13:05:57.112Z,56.40
2019-02-20T13:07:02.619Z,56.70
2019-02-20T13:08:06.544Z,57.40
2019-02-20T13:09:12.831Z,58.10
2019-02-20T13:10:18.541Z,58.80
2019-02-20T13:11:22.689Z,58.60
2019-02-20T13:12:26.572Z,59.20
2019-02-20T13:13:31.627Z,59.00
2019-02-20T13:14:35.627Z,59.50
2019-02-20T13:15:42.603Z,59.90
2019-02-20T13:16:46.672Z,60.20
2019-02-20T13:17:50.687Z,60.00
2019-02-20T13:18:54.617Z,60.60
2019-02-20T13:20:00.328Z,60.60
2019-02-20T13:21:06.571Z,60.10
2019-02-20T13:22:11.167Z,60.20
2019-02-20T13:23:15.291Z,59.90
2019-02-20T13:24:21.144Z,59.70
2019-02-20T13:25:28.836Z,59.60
2019-02-20T13:26:32.822Z,59.50
2019-02-20T13:27:37.806Z,59.60
2019-02-20T13:28:41.819Z,59.60
2019-02-20T13:29:45.882Z,60.00
2019-02-20T13:30:49.972Z,59.80
2019-02-20T13:31:55.193Z,60.00
2019-02-20T13:33:04.977Z,60.30
2019-02-20T13:34:09.019Z,60.00
2019-02-20T13:35:14.719Z,60.10
2019-02-20T13:36:18.619Z,60.00
2019-02-20T13:37:23.200Z,60.00
2019-02-20T13:38:29.919Z,60.10
2019-02-20T13:39:33.947Z,60.40
2019-02-20T13:40:41.171Z,60.40
2019-02-20T13:41:45.269Z,60.50
2019-02-20T13:42:49.223Z,60.90
2019-02-20T13:43:53.236Z,61.00
2019-02-20T13:44:57.254Z,60.70
2019-02-20T13:46:01.671Z,61.10
2019-02-20T13:47:06.563Z,61.10
2019-02-20T13:48:11.612Z,61.20
2019-02-20T13:49:17.266Z,61.30
2019-02-20T13:50:21.322Z,61.50
2019-02-20T13:51:28.033Z,61.30
2019-02-20T13:52:32.445Z,61.00
2019-02-20T13:53:36.690Z,61.40
2019-02-20T13:54:40.589Z,61.30
2019-02-20T13:55:46.343Z,61.50
2019-02-20T13:56:50.299Z,61.60
2019-02-20T13:57:54.274Z,61.60
2019-02-20T13:58:58.155Z,61.50
2019-02-20T14:00:02.171Z,61.30
2019-02-20T14:01:07.086Z,60.40
2019-02-20T14:02:11.829Z,60.90
2019-02-20T14:03:15.992Z,60.90
2019-02-20T14:04:21.018Z,60.80
2019-02-20T14:05:25.037Z,60.40
2019-02-20T14:06:29.003Z,60.60
2019-02-20T14:07:32.979Z,60.70
2019-02-20T14:08:37.103Z,60.80
2019-02-20T14:09:43.076Z,61.00
2019-02-20T14:10:49.385Z,61.10
2019-02-20T14:11:54.121Z,61.50
2019-02-20T14:12:59.688Z,61.80
2019-02-20T14:14:03.868Z,62.20
2019-02-20T14:15:10.348Z,62.60
2019-02-20T14:16:14.882Z,62.80
2019-02-20T14:17:26.476Z,62.70
2019-02-20T14:18:25.255Z,62.60
2019-02-20T14:19:31.657Z,62.70
2019-02-20T14:20:35.005Z,63.10
2019-02-20T14:21:38.993Z,63.20
2019-02-20T14:22:45.944Z,63.20
2019-02-20T14:23:49.931Z,63.40
2019-02-20T14:24:53.903Z,63.60
2019-02-20T14:25:59.654Z,63.90
2019-02-20T14:27:10.524Z,63.90
2019-02-20T14:28:11.926Z,64.30
2019-02-20T14:29:15.907Z,64.60
2019-02-20T14:30:19.873Z,64.90
2019-02-20T14:31:24.548Z,65.20
2019-02-20T14:32:28.647Z,65.40
2019-02-20T14:33:34.204Z,65.50
2019-02-20T14:34:39.083Z,65.70
2019-02-20T14:35:43.007Z,65.60
2019-02-20T14:36:47.972Z,65.60
2019-02-20T14:37:53.364Z,65.50
2019-02-20T14:39:02.651Z,65.00
2019-02-20T14:40:09.303Z,65.20